sensor_id;sensor_type;location;lat;lon;timestamp;pressure;altitude;pressure_sealevel;temperature;humidity
27643;BME280;15053;48.618;10.024;2023-11-19T00:00:52;94244.25;;;6.36;100.00
27643;BME280;15053;48.618;10.024;2023-11-19T00:03:19;94237.25;;;6.32;100.00
27643;BME280;15053;48.618;10.024;2023-11-19T00:05:46;94232.09;;;6.37;100.00
27643;BME280;15053;48.618;10.024;2023-11-19T00:08:13;94224.31;;;6.42;100.00
27643;BME280;15053;48.618;10.024;2023-11-19T00:10:39;94212.94;;;6.48;100.00
27643;BME280;15053;48.618;10.024;2023-11-19T00:13:06;94207.50;;;6.49;100.00
27643;BME280;15053;48.618;10.024;2023-11-19T00:15:33;94196.66;;;6.42;100.00
27643;BME280;15053;48.618;10.024;2023-11-19T00:17:59;94187.84;;;6.43;100.00
27643;BME280;15053;48.618;10.024;2023-11-19T00:20:27;94194.28;;;6.51;100.00
27643;BME280;15053;48.618;10.024;2023-11-19T00:22:55;94181.88;;;6.43;100.00
27643;BME280;15053;48.618;10.024;2023-11-19T00:25:21;94183.19;;;6.45;100.00
27643;BME280;15053;48.618;10.024;2023-11-19T00:27:48;94183.97;;;6.41;100.00
27643;BME280;15053;48.618;10.024;2023-11-19T00:30:17;94194.31;;;6.41;100.00
27643;BME280;15053;48.618;10.024;2023-11-19T00:32:43;94180.38;;;6.37;100.00
27643;BME280;15053;48.618;10.024;2023-11-19T00:35:10;94191.72;;;6.46;100.00
27643;BME280;15053;48.618;10.024;2023-11-19T00:37:37;94192.50;;;6.41;100.00
27643;BME280;15053;48.618;10.024;2023-11-19T00:40:04;94188.66;;;6.34;100.00
27643;BME280;15053;48.618;10.024;2023-11-19T00:42:32;94183.19;;;6.40;100.00
27643;BME280;15053;48.618;10.024;2023-11-19T00:44:58;94179.28;;;6.43;100.00
27643;BME280;15053;48.618;10.024;2023-11-19T00:47:25;94182.16;;;6.36;100.00
27643;BME280;15053;48.618;10.024;2023-11-19T00:49:51;94169.50;;;6.35;100.00
27643;BME280;15053;48.618;10.024;2023-11-19T00:52:19;94167.94;;;6.39;100.00
27643;BME280;15053;48.618;10.024;2023-11-19T00:54:45;94171.81;;;6.36;100.00
27643;BME280;15053;48.618;10.024;2023-11-19T00:57:12;94167.94;;;6.44;100.00
27643;BME280;15053;48.618;10.024;2023-11-19T00:59:41;94165.09;;;6.45;100.00
27643;BME280;15053;48.618;10.024;2023-11-19T01:02:08;94172.31;;;6.43;100.00
27643;BME280;15053;48.618;10.024;2023-11-19T01:04:35;94166.88;;;6.50;100.00
27643;BME280;15053;48.618;10.024;2023-11-19T01:07:03;94167.88;;;6.54;100.00
27643;BME280;15053;48.618;10.024;2023-11-19T01:09:33;94166.88;;;6.50;100.00
27643;BME280;15053;48.618;10.024;2023-11-19T01:12:03;94163.78;;;6.53;100.00
27643;BME280;15053;48.618;10.024;2023-11-19T01:14:30;94165.31;;;6.54;100.00
27643;BME280;15053;48.618;10.024;2023-11-19T01:16:57;94158.81;;;6.57;100.00
27643;BME280;15053;48.618;10.024;2023-11-19T01:19:24;94153.41;;;6.58;100.00
27643;BME280;15053;48.618;10.024;2023-11-19T01:21:51;94161.16;;;6.63;100.00
27643;BME280;15053;48.618;10.024;2023-11-19T01:24:18;94151.31;;;6.60;100.00
27643;BME280;15053;48.618;10.024;2023-11-19T01:26:45;94145.09;;;6.66;100.00
27643;BME280;15053;48.618;10.024;2023-11-19T01:29:13;94154.38;;;6.72;100.00
27643;BME280;15053;48.618;10.024;2023-11-19T01:31:41;94145.06;;;6.71;100.00
27643;BME280;15053;48.618;10.024;2023-11-19T01:34:07;94134.94;;;6.80;100.00
27643;BME280;15053;48.618;10.024;2023-11-19T01:36:34;94138.00;;;6.87;100.00
27643;BME280;15053;48.618;10.024;2023-11-19T01:39:01;94135.19;;;6.83;100.00
27643;BME280;15053;48.618;10.024;2023-11-19T01:41:28;94112.41;;;6.85;100.00
27643;BME280;15053;48.618;10.024;2023-11-19T01:43:54;94120.13;;;6.90;100.00
27643;BME280;15053;48.618;10.024;2023-11-19T01:46:21;94121.44;;;6.88;100.00
27643;BME280;15053;48.618;10.024;2023-11-19T01:48:47;94118.03;;;6.92;100.00
27643;BME280;15053;48.618;10.024;2023-11-19T01:51:14;94111.81;;;6.98;100.00
27643;BME280;15053;48.618;10.024;2023-11-19T01:53:43;94101.97;;;6.95;100.00
27643;BME280;15053;48.618;10.024;2023-11-19T01:56:13;94106.34;;;7.05;100.00
27643;BME280;15053;48.618;10.024;2023-11-19T01:58:41;94094.69;;;7.07;100.00
27643;BME280;15053;48.618;10.024;2023-11-19T02:01:10;94108.41;;;7.08;100.00
27643;BME280;15053;48.618;10.024;2023-11-19T02:03:37;94101.69;;;7.02;100.00
27643;BME280;15053;48.618;10.024;2023-11-19T02:06:04;94090.03;;;7.04;100.00
27643;BME280;15053;48.618;10.024;2023-11-19T02:08:31;94094.72;;;7.02;100.00
27643;BME280;15053;48.618;10.024;2023-11-19T02:10:58;94089.75;;;7.06;100.00
27643;BME280;15053;48.618;10.024;2023-11-19T02:13:26;94081.44;;;7.09;100.00
27643;BME280;15053;48.618;10.024;2023-11-19T02:15:53;94084.03;;;7.14;100.00
27643;BME280;15053;48.618;10.024;2023-11-19T02:18:25;94078.84;;;7.14;100.00
27643;BME280;15053;48.618;10.024;2023-11-19T02:20:58;94086.06;;;7.17;100.00
27643;BME280;15053;48.618;10.024;2023-11-19T02:23:30;94086.88;;;7.12;100.00
27643;BME280;15053;48.618;10.024;2023-11-19T02:26:01;94086.84;;;7.18;100.00
27643;BME280;15053;48.618;10.024;2023-11-19T02:28:28;94088.66;;;7.17;100.00
27643;BME280;15053;48.618;10.024;2023-11-19T02:30:55;94084.78;;;7.14;100.00
27643;BME280;15053;48.618;10.024;2023-11-19T02:33:22;94088.44;;;7.13;100.00
27643;BME280;15053;48.618;10.024;2023-11-19T02:35:49;94069.53;;;7.13;100.00
27643;BME280;15053;48.618;10.024;2023-11-19T02:38:15;94082.19;;;7.20;100.00
27643;BME280;15053;48.618;10.024;2023-11-19T02:40:42;94081.63;;;7.23;100.00
27643;BME280;15053;48.618;10.024;2023-11-19T02:43:09;94079.56;;;7.25;100.00
27643;BME280;15053;48.618;10.024;2023-11-19T02:45:36;94081.13;;;7.21;100.00
27643;BME280;15053;48.618;10.024;2023-11-19T02:48:03;94066.59;;;7.25;100.00
27643;BME280;15053;48.618;10.024;2023-11-19T02:50:32;94065.00;;;7.29;100.00
27643;BME280;15053;48.618;10.024;2023-11-19T02:52:59;94067.56;;;7.34;100.00
27643;BME280;15053;48.618;10.024;2023-11-19T02:55:26;94065.50;;;7.36;100.00
27643;BME280;15053;48.618;10.024;2023-11-19T02:57:54;94072.72;;;7.34;100.00
27643;BME280;15053;48.618;10.024;2023-11-19T03:00:23;94073.47;;;7.39;100.00
27643;BME280;15053;48.618;10.024;2023-11-19T03:03:04;94060.81;;;7.38;100.00
27643;BME280;15053;48.618;10.024;2023-11-19T03:05:46;94058.66;;;7.45;100.00
27643;BME280;15053;48.618;10.024;2023-11-19T03:08:14;94055.56;;;7.43;100.00
27643;BME280;15053;48.618;10.024;2023-11-19T03:10:49;94062.84;;;7.41;100.00
27643;BME280;15053;48.618;10.024;2023-11-19T03:13:15;94072.44;;;7.40;100.00
27643;BME280;15053;48.618;10.024;2023-11-19T03:15:43;94063.31;;;7.48;100.00
27643;BME280;15053;48.618;10.024;2023-11-19T03:18:10;94074.94;;;7.50;100.00
27643;BME280;15053;48.618;10.024;2023-11-19T03:20:37;94072.31;;;7.55;100.00
27643;BME280;15053;48.618;10.024;2023-11-19T03:23:03;94067.91;;;7.56;100.00
27643;BME280;15053;48.618;10.024;2023-11-19T03:25:30;94076.75;;;7.50;100.00
27643;BME280;15053;48.618;10.024;2023-11-19T03:28:00;94079.34;;;7.50;100.00
27643;BME280;15053;48.618;10.024;2023-11-19T03:30:29;94073.31;;;7.59;100.00
27643;BME280;15053;48.618;10.024;2023-11-19T03:33:00;94079.22;;;7.65;100.00
27643;BME280;15053;48.618;10.024;2023-11-19T03:35:28;94085.19;;;7.65;100.00
27643;BME280;15053;48.618;10.024;2023-11-19T03:37:56;94081.38;;;7.58;100.00
27643;BME280;15053;48.618;10.024;2023-11-19T03:40:23;94081.81;;;7.65;100.00
27643;BME280;15053;48.618;10.024;2023-11-19T03:42:52;94084.97;;;7.62;100.00
27643;BME280;15053;48.618;10.024;2023-11-19T03:45:19;94084.19;;;7.61;100.00
27643;BME280;15053;48.618;10.024;2023-11-19T03:47:45;94088.50;;;7.71;100.00
27643;BME280;15053;48.618;10.024;2023-11-19T03:50:12;94091.09;;;7.71;100.00
27643;BME280;15053;48.618;10.024;2023-11-19T03:52:38;94087.44;;;7.77;100.00
27643;BME280;15053;48.618;10.024;2023-11-19T03:55:08;94083.78;;;7.78;100.00
27643;BME280;15053;48.618;10.024;2023-11-19T03:57:35;94095.22;;;7.77;100.00
27643;BME280;15053;48.618;10.024;2023-11-19T04:00:02;94076.50;;;7.80;100.00
27643;BME280;15053;48.618;10.024;2023-11-19T04:02:40;94079.25;;;7.89;100.00
27643;BME280;15053;48.618;10.024;2023-11-19T04:05:07;94061.16;;;7.84;100.00
27643;BME280;15053;48.618;10.024;2023-11-19T04:07:33;94071.78;;;7.87;100.00
27643;BME280;15053;48.618;10.024;2023-11-19T04:10:00;94076.13;;;7.92;100.00
27643;BME280;15053;48.618;10.024;2023-11-19T04:12:27;94076.97;;;7.87;100.00
27643;BME280;15053;48.618;10.024;2023-11-19T04:14:53;94082.38;;;7.91;100.00
27643;BME280;15053;48.618;10.024;2023-11-19T04:17:23;94065.50;;;7.93;100.00
27643;BME280;15053;48.618;10.024;2023-11-19T04:19:49;94060.81;;;7.95;100.00
27643;BME280;15053;48.618;10.024;2023-11-19T04:22:16;94071.13;;;8.00;100.00
27643;BME280;15053;48.618;10.024;2023-11-19T04:24:44;94065.88;;;8.05;100.00
27643;BME280;15053;48.618;10.024;2023-11-19T04:27:12;94061.75;;;8.04;100.00
27643;BME280;15053;48.618;10.024;2023-11-19T04:29:39;94058.28;;;8.14;100.00
27643;BME280;15053;48.618;10.024;2023-11-19T04:32:05;94049.72;;;8.13;100.00
27643;BME280;15053;48.618;10.024;2023-11-19T04:34:32;94048.63;;;8.19;100.00
27643;BME280;15053;48.618;10.024;2023-11-19T04:36:59;94049.63;;;8.23;100.00
27643;BME280;15053;48.618;10.024;2023-11-19T04:39:39;94041.53;;;8.30;100.00
27643;BME280;15053;48.618;10.024;2023-11-19T04:42:05;94048.19;;;8.36;100.00
27643;BME280;15053;48.618;10.024;2023-11-19T04:44:33;94038.53;;;8.42;100.00
27643;BME280;15053;48.618;10.024;2023-11-19T04:46:59;94041.06;;;8.47;100.00
27643;BME280;15053;48.618;10.024;2023-11-19T04:49:27;94037.28;;;8.58;100.00
27643;BME280;15053;48.618;10.024;2023-11-19T04:51:54;94041.66;;;8.62;100.00
27643;BME280;15053;48.618;10.024;2023-11-19T04:54:20;94053.25;;;8.70;100.00
27643;BME280;15053;48.618;10.024;2023-11-19T04:56:47;94040.41;;;8.78;100.00
27643;BME280;15053;48.618;10.024;2023-11-19T04:59:14;94049.66;;;8.84;100.00
27643;BME280;15053;48.618;10.024;2023-11-19T05:01:40;94052.41;;;8.93;100.00
27643;BME280;15053;48.618;10.024;2023-11-19T05:04:07;94057.25;;;9.00;100.00
27643;BME280;15053;48.618;10.024;2023-11-19T05:06:34;94050.16;;;9.05;100.00
27643;BME280;15053;48.618;10.024;2023-11-19T05:09:02;94044.47;;;9.03;100.00
27643;BME280;15053;48.618;10.024;2023-11-19T05:11:33;94051.56;;;9.16;100.00
27643;BME280;15053;48.618;10.024;2023-11-19T05:14:02;94051.47;;;9.21;100.00
27643;BME280;15053;48.618;10.024;2023-11-19T05:16:30;94049.19;;;9.20;100.00
27643;BME280;15053;48.618;10.024;2023-11-19T05:18:57;94045.25;;;9.22;100.00
27643;BME280;15053;48.618;10.024;2023-11-19T05:21:24;94050.63;;;9.26;100.00
27643;BME280;15053;48.618;10.024;2023-11-19T05:23:50;94046.41;;;9.30;100.00
27643;BME280;15053;48.618;10.024;2023-11-19T05:26:21;94057.59;;;9.30;100.00
27643;BME280;15053;48.618;10.024;2023-11-19T05:28:48;94051.41;;;9.26;100.00
27643;BME280;15053;48.618;10.024;2023-11-19T05:31:16;94048.72;;;9.31;100.00
27643;BME280;15053;48.618;10.024;2023-11-19T05:33:44;94046.97;;;9.27;100.00
27643;BME280;15053;48.618;10.024;2023-11-19T05:36:11;94055.19;;;9.34;100.00
27643;BME280;15053;48.618;10.024;2023-11-19T05:38:39;94051.44;;;9.40;100.00
27643;BME280;15053;48.618;10.024;2023-11-19T05:41:05;94057.63;;;9.44;100.00
27643;BME280;15053;48.618;10.024;2023-11-19T05:43:32;94045.53;;;9.53;100.00
27643;BME280;15053;48.618;10.024;2023-11-19T05:45:59;94042.56;;;9.60;100.00
27643;BME280;15053;48.618;10.024;2023-11-19T05:48:26;94048.66;;;9.69;100.00
27643;BME280;15053;48.618;10.024;2023-11-19T05:50:53;94054.81;;;9.73;100.00
27643;BME280;15053;48.618;10.024;2023-11-19T05:53:20;94060.13;;;9.81;100.00
27643;BME280;15053;48.618;10.024;2023-11-19T05:55:47;94068.63;;;9.87;100.00
27643;BME280;15053;48.618;10.024;2023-11-19T05:58:27;94056.41;;;9.87;100.00
27643;BME280;15053;48.618;10.024;2023-11-19T06:00:56;94068.94;;;9.99;100.00
27643;BME280;15053;48.618;10.024;2023-11-19T06:03:23;94068.38;;;10.02;100.00
27643;BME280;15053;48.618;10.024;2023-11-19T06:05:50;94061.03;;;10.04;100.00
27643;BME280;15053;48.618;10.024;2023-11-19T06:08:16;94071.09;;;10.11;100.00
27643;BME280;15053;48.618;10.024;2023-11-19T06:10:44;94064.56;;;10.13;100.00
27643;BME280;15053;48.618;10.024;2023-11-19T06:13:13;94067.91;;;10.14;100.00
27643;BME280;15053;48.618;10.024;2023-11-19T06:15:42;94074.31;;;10.21;100.00
27643;BME280;15053;48.618;10.024;2023-11-19T06:18:09;94067.28;;;10.22;100.00
27643;BME280;15053;48.618;10.024;2023-11-19T06:20:38;94070.16;;;10.34;100.00
27643;BME280;15053;48.618;10.024;2023-11-19T06:23:07;94074.59;;;10.33;100.00
27643;BME280;15053;48.618;10.024;2023-11-19T06:25:34;94071.88;;;10.38;100.00
27643;BME280;15053;48.618;10.024;2023-11-19T06:28:02;94064.56;;;10.40;100.00
27643;BME280;15053;48.618;10.024;2023-11-19T06:30:29;94070.72;;;10.44;100.00
27643;BME280;15053;48.618;10.024;2023-11-19T06:32:57;94068.63;;;10.46;100.00
27643;BME280;15053;48.618;10.024;2023-11-19T06:35:24;94057.72;;;10.44;100.00
27643;BME280;15053;48.618;10.024;2023-11-19T06:37:51;94071.13;;;10.51;100.00
27643;BME280;15053;48.618;10.024;2023-11-19T06:40:17;94081.13;;;10.58;100.00
27643;BME280;15053;48.618;10.024;2023-11-19T06:42:44;94084.72;;;10.62;100.00
27643;BME280;15053;48.618;10.024;2023-11-19T06:45:10;94073.81;;;10.60;100.00
27643;BME280;15053;48.618;10.024;2023-11-19T06:47:37;94077.84;;;10.66;100.00
27643;BME280;15053;48.618;10.024;2023-11-19T06:50:03;94087.41;;;10.71;100.00
27643;BME280;15053;48.618;10.024;2023-11-19T06:52:32;94084.81;;;10.71;100.00
27643;BME280;15053;48.618;10.024;2023-11-19T06:54:58;94078.81;;;10.70;100.00
27643;BME280;15053;48.618;10.024;2023-11-19T06:57:28;94084.81;;;10.71;100.00
27643;BME280;15053;48.618;10.024;2023-11-19T06:59:57;94091.53;;;10.72;100.00
27643;BME280;15053;48.618;10.024;2023-11-19T07:02:24;94094.66;;;10.74;100.00
27643;BME280;15053;48.618;10.024;2023-11-19T07:04:53;94092.13;;;10.68;100.00
27643;BME280;15053;48.618;10.024;2023-11-19T07:07:21;94100.25;;;10.67;100.00
27643;BME280;15053;48.618;10.024;2023-11-19T07:09:47;94094.44;;;10.70;100.00
27643;BME280;15053;48.618;10.024;2023-11-19T07:12:14;94092.31;;;10.72;100.00
27643;BME280;15053;48.618;10.024;2023-11-19T07:14:41;94095.81;;;10.68;100.00
27643;BME280;15053;48.618;10.024;2023-11-19T07:17:08;94100.44;;;10.71;100.00
27643;BME280;15053;48.618;10.024;2023-11-19T07:19:37;94102.66;;;10.63;100.00
27643;BME280;15053;48.618;10.024;2023-11-19T07:22:05;94086.84;;;10.60;100.00
27643;BME280;15053;48.618;10.024;2023-11-19T07:24:33;94101.59;;;10.64;100.00
27643;BME280;15053;48.618;10.024;2023-11-19T07:27:00;94109.69;;;10.63;100.00
27643;BME280;15053;48.618;10.024;2023-11-19T07:29:27;94102.16;;;10.61;100.00
27643;BME280;15053;48.618;10.024;2023-11-19T07:31:55;94107.84;;;10.63;100.00
27643;BME280;15053;48.618;10.024;2023-11-19T07:34:24;94111.53;;;10.62;100.00
27643;BME280;15053;48.618;10.024;2023-11-19T07:36:51;94115.19;;;10.61;100.00
27643;BME280;15053;48.618;10.024;2023-11-19T07:39:18;94127.63;;;10.64;100.00
27643;BME280;15053;48.618;10.024;2023-11-19T07:41:44;94116.75;;;10.62;100.00
27643;BME280;15053;48.618;10.024;2023-11-19T07:44:11;94133.41;;;10.61;100.00
27643;BME280;15053;48.618;10.024;2023-11-19T07:46:38;94122.22;;;10.61;100.00
27643;BME280;15053;48.618;10.024;2023-11-19T07:49:04;94127.75;;;10.59;100.00
27643;BME280;15053;48.618;10.024;2023-11-19T07:51:31;94125.81;;;10.65;100.00
27643;BME280;15053;48.618;10.024;2023-11-19T07:53:57;94125.03;;;10.64;100.00
27643;BME280;15053;48.618;10.024;2023-11-19T07:56:24;94127.34;;;10.66;100.00
27643;BME280;15053;48.618;10.024;2023-11-19T07:58:51;94136.41;;;10.68;100.00
27643;BME280;15053;48.618;10.024;2023-11-19T08:01:18;94129.56;;;10.73;100.00
27643;BME280;15053;48.618;10.024;2023-11-19T08:03:44;94144.63;;;10.76;100.00
27643;BME280;15053;48.618;10.024;2023-11-19T08:06:14;94123.47;;;10.77;100.00
27643;BME280;15053;48.618;10.024;2023-11-19T08:08:40;94136.22;;;10.79;100.00
27643;BME280;15053;48.618;10.024;2023-11-19T08:11:07;94128.88;;;10.81;100.00
27643;BME280;15053;48.618;10.024;2023-11-19T08:13:34;94128.88;;;10.81;100.00
27643;BME280;15053;48.618;10.024;2023-11-19T08:16:00;94129.00;;;10.76;100.00
27643;BME280;15053;48.618;10.024;2023-11-19T08:18:27;94129.75;;;10.76;100.00
27643;BME280;15053;48.618;10.024;2023-11-19T08:20:54;94133.22;;;10.72;100.00
27643;BME280;15053;48.618;10.024;2023-11-19T08:23:20;94134.28;;;10.71;100.00
27643;BME280;15053;48.618;10.024;2023-11-19T08:25:47;94137.00;;;10.65;100.00
27643;BME280;15053;48.618;10.024;2023-11-19T08:28:13;94139.59;;;10.65;100.00
27643;BME280;15053;48.618;10.024;2023-11-19T08:30:40;94142.28;;;10.60;100.00
27643;BME280;15053;48.618;10.024;2023-11-19T08:33:07;94144.50;;;10.67;100.00
27643;BME280;15053;48.618;10.024;2023-11-19T08:35:33;94124.94;;;10.70;100.00
27643;BME280;15053;48.618;10.024;2023-11-19T08:38:00;94135.34;;;10.70;100.00
27643;BME280;15053;48.618;10.024;2023-11-19T08:40:27;94136.22;;;10.65;100.00
27643;BME280;15053;48.618;10.024;2023-11-19T08:42:53;94137.28;;;10.64;100.00
27643;BME280;15053;48.618;10.024;2023-11-19T08:45:20;94127.06;;;10.68;100.00
27643;BME280;15053;48.618;10.024;2023-11-19T08:47:46;94134.66;;;10.78;100.00
27643;BME280;15053;48.618;10.024;2023-11-19T08:50:13;94121.44;;;10.88;100.00
27643;BME280;15053;48.618;10.024;2023-11-19T08:52:40;94123.19;;;10.92;100.00
27643;BME280;15053;48.618;10.024;2023-11-19T08:55:06;94117.19;;;10.92;100.00
27643;BME280;15053;48.618;10.024;2023-11-19T08:57:33;94129.66;;;10.95;100.00
27643;BME280;15053;48.618;10.024;2023-11-19T08:59:59;94139.09;;;10.91;100.00
27643;BME280;15053;48.618;10.024;2023-11-19T09:02:26;94131.28;;;10.91;100.00
27643;BME280;15053;48.618;10.024;2023-11-19T09:04:53;94146.53;;;10.84;100.00
27643;BME280;15053;48.618;10.024;2023-11-19T09:07:20;94132.81;;;10.92;100.00
27643;BME280;15053;48.618;10.024;2023-11-19T09:09:47;94132.53;;;10.93;100.00
27643;BME280;15053;48.618;10.024;2023-11-19T09:12:14;94138.25;;;10.95;100.00
27643;BME280;15053;48.618;10.024;2023-11-19T09:14:40;94129.66;;;10.95;100.00
27643;BME280;15053;48.618;10.024;2023-11-19T09:17:08;94140.75;;;11.00;100.00
27643;BME280;15053;48.618;10.024;2023-11-19T09:19:36;94145.81;;;11.19;100.00
27643;BME280;15053;48.618;10.024;2023-11-19T09:22:02;94145.53;;;11.20;100.00
27643;BME280;15053;48.618;10.024;2023-11-19T09:24:29;94150.56;;;11.17;100.00
27643;BME280;15053;48.618;10.024;2023-11-19T09:26:56;94153.06;;;11.22;100.00
27643;BME280;15053;48.618;10.024;2023-11-19T09:29:22;94166.28;;;11.25;100.00
27643;BME280;15053;48.618;10.024;2023-11-19T09:31:50;94159.72;;;11.28;100.00
27643;BME280;15053;48.618;10.024;2023-11-19T09:34:16;94157.47;;;11.35;100.00
27643;BME280;15053;48.618;10.024;2023-11-19T09:36:43;94149.13;;;11.47;100.00
27643;BME280;15053;48.618;10.024;2023-11-19T09:39:11;94163.03;;;11.69;100.00
27643;BME280;15053;48.618;10.024;2023-11-19T09:41:39;94156.25;;;11.91;100.00
27643;BME280;15053;48.618;10.024;2023-11-19T09:44:06;94138.09;;;12.08;100.00
27643;BME280;15053;48.618;10.024;2023-11-19T09:46:33;94140.06;;;12.24;100.00
27643;BME280;15053;48.618;10.024;2023-11-19T09:49:00;94144.47;;;12.46;100.00
27643;BME280;15053;48.618;10.024;2023-11-19T09:51:28;94140.69;;;12.61;100.00
27643;BME280;15053;48.618;10.024;2023-11-19T09:53:54;94098.56;;;12.23;100.00
27643;BME280;15053;48.618;10.024;2023-11-19T09:56:21;94138.53;;;12.32;100.00
27643;BME280;15053;48.618;10.024;2023-11-19T09:58:49;94135.63;;;12.33;99.52
27643;BME280;15053;48.618;10.024;2023-11-19T10:01:16;94139.69;;;12.48;99.64
27643;BME280;15053;48.618;10.024;2023-11-19T10:03:47;94138.41;;;12.37;96.69
27643;BME280;15053;48.618;10.024;2023-11-19T10:06:15;94141.84;;;12.46;97.23
27643;BME280;15053;48.618;10.024;2023-11-19T10:08:43;94139.22;;;12.46;97.15
27643;BME280;15053;48.618;10.024;2023-11-19T10:11:10;94140.94;;;12.51;96.29
27643;BME280;15053;48.618;10.024;2023-11-19T10:13:38;94143.84;;;12.49;97.15
27643;BME280;15053;48.618;10.024;2023-11-19T10:16:09;94135.53;;;12.47;96.24
27643;BME280;15053;48.618;10.024;2023-11-19T10:18:49;94130.53;;;12.59;97.24
27643;BME280;15053;48.618;10.024;2023-11-19T10:21:19;94148.16;;;12.93;96.48
27643;BME280;15053;48.618;10.024;2023-11-19T10:23:51;94147.09;;;12.85;96.41
27643;BME280;15053;48.618;10.024;2023-11-19T10:26:19;94137.66;;;12.76;95.18
27643;BME280;15053;48.618;10.024;2023-11-19T10:28:47;94134.63;;;12.82;95.05
27643;BME280;15053;48.618;10.024;2023-11-19T10:31:17;94126.03;;;12.90;94.43
27643;BME280;15053;48.618;10.024;2023-11-19T10:33:45;94109.72;;;13.02;94.02
27643;BME280;15053;48.618;10.024;2023-11-19T10:36:12;94145.63;;;13.19;91.69
27643;BME280;15053;48.618;10.024;2023-11-19T10:38:39;94129.28;;;13.05;91.62
27643;BME280;15053;48.618;10.024;2023-11-19T10:41:07;94123.72;;;12.97;92.33
27643;BME280;15053;48.618;10.024;2023-11-19T10:43:43;94129.09;;;12.92;92.09
27643;BME280;15053;48.618;10.024;2023-11-19T10:46:12;94113.59;;;13.05;92.71
27643;BME280;15053;48.618;10.024;2023-11-19T10:48:40;94104.59;;;13.45;91.99
27643;BME280;15053;48.618;10.024;2023-11-19T10:51:07;94088.56;;;13.55;87.16
27643;BME280;15053;48.618;10.024;2023-11-19T10:53:38;94074.72;;;13.54;88.45
27643;BME280;15053;48.618;10.024;2023-11-19T10:56:09;94091.47;;;13.79;87.95
27643;BME280;15053;48.618;10.024;2023-11-19T10:58:37;94071.88;;;14.11;87.49
27643;BME280;15053;48.618;10.024;2023-11-19T11:01:19;94057.31;;;14.31;85.27
27643;BME280;15053;48.618;10.024;2023-11-19T11:03:51;94078.53;;;13.91;84.64
27643;BME280;15053;48.618;10.024;2023-11-19T11:06:21;94079.81;;;13.59;85.76
27643;BME280;15053;48.618;10.024;2023-11-19T11:08:49;94088.75;;;13.50;84.47
27643;BME280;15053;48.618;10.024;2023-11-19T11:11:16;94090.91;;;13.39;87.14
27643;BME280;15053;48.618;10.024;2023-11-19T11:13:53;94093.19;;;13.32;89.12
27643;BME280;15053;48.618;10.024;2023-11-19T11:16:22;94085.97;;;13.21;89.98
27643;BME280;15053;48.618;10.024;2023-11-19T11:18:49;94087.81;;;13.20;90.64
27643;BME280;15053;48.618;10.024;2023-11-19T11:21:21;94091.47;;;13.11;91.41
27643;BME280;15053;48.618;10.024;2023-11-19T11:24:07;94080.88;;;13.16;91.60
27643;BME280;15053;48.618;10.024;2023-11-19T11:30:01;94083.81;;;13.40;89.70
27643;BME280;15053;48.618;10.024;2023-11-19T11:32:51;94029.16;;;12.87;89.54
27643;BME280;15053;48.618;10.024;2023-11-19T11:35:35;94029.31;;;12.90;89.90
27643;BME280;15053;48.618;10.024;2023-11-19T11:38:08;94073.50;;;13.18;90.30
27643;BME280;15053;48.618;10.024;2023-11-19T11:40:35;94083.22;;;13.34;91.23
27643;BME280;15053;48.618;10.024;2023-11-19T11:43:02;94071.50;;;13.32;91.04
27643;BME280;15053;48.618;10.024;2023-11-19T11:45:36;94090.44;;;13.20;91.05
27643;BME280;15053;48.618;10.024;2023-11-19T11:48:08;94081.97;;;13.15;89.66
27643;BME280;15053;48.618;10.024;2023-11-19T11:50:36;94081.63;;;13.08;89.73
27643;BME280;15053;48.618;10.024;2023-11-19T11:53:19;94079.50;;;13.10;90.42
27643;BME280;15053;48.618;10.024;2023-11-19T11:58:26;94077.00;;;13.05;89.83
27643;BME280;15053;48.618;10.024;2023-11-19T12:00:53;94080.56;;;13.17;89.86
27643;BME280;15053;48.618;10.024;2023-11-19T12:03:21;94091.94;;;13.21;88.96
27643;BME280;15053;48.618;10.024;2023-11-19T12:05:49;94072.44;;;13.53;84.76
27643;BME280;15053;48.618;10.024;2023-11-19T12:08:19;94060.72;;;13.59;85.55
27643;BME280;15053;48.618;10.024;2023-11-19T12:10:52;94061.63;;;13.46;84.66
27643;BME280;15053;48.618;10.024;2023-11-19T12:13:20;94068.41;;;13.64;83.71
27643;BME280;15053;48.618;10.024;2023-11-19T12:18:24;94088.38;;;13.94;81.81
27643;BME280;15053;48.618;10.024;2023-11-19T12:20:52;94055.84;;;14.04;82.77
27643;BME280;15053;48.618;10.024;2023-11-19T12:23:19;94066.94;;;14.56;79.18
27643;BME280;15053;48.618;10.024;2023-11-19T12:25:46;94045.25;;;14.76;77.39
27643;BME280;15053;48.618;10.024;2023-11-19T12:28:14;94056.38;;;15.02;76.37
27643;BME280;15053;48.618;10.024;2023-11-19T12:30:43;94016.84;;;15.07;75.67
27643;BME280;15053;48.618;10.024;2023-11-19T12:33:11;94050.91;;;15.69;73.33
27643;BME280;15053;48.618;10.024;2023-11-19T12:35:42;94061.63;;;15.02;76.25
27643;BME280;15053;48.618;10.024;2023-11-19T12:38:25;94036.41;;;14.60;79.63
27643;BME280;15053;48.618;10.024;2023-11-19T12:41:05;94043.31;;;14.64;78.58
27643;BME280;15053;48.618;10.024;2023-11-19T12:43:32;94044.63;;;14.79;77.61
27643;BME280;15053;48.618;10.024;2023-11-19T12:46:23;94052.44;;;14.88;77.27
27643;BME280;15053;48.618;10.024;2023-11-19T12:48:51;94068.47;;;14.57;77.30
27643;BME280;15053;48.618;10.024;2023-11-19T12:51:18;94035.19;;;14.11;81.37
27643;BME280;15053;48.618;10.024;2023-11-19T12:53:52;94016.38;;;14.17;81.05
27643;BME280;15053;48.618;10.024;2023-11-19T12:56:24;94048.31;;;14.02;82.85
27643;BME280;15053;48.618;10.024;2023-11-19T12:58:51;94038.41;;;14.16;82.05
27643;BME280;15053;48.618;10.024;2023-11-19T13:01:19;94022.53;;;14.22;80.69